Time;durP1;ratioP1;P1;durP2;ratioP2;P2;SDS_P1;SDS_P2;PMS_P1;PMS_P2;Temp;Humidity;BMP_temperature;BMP_pressure;BME280_temperature;BME280_humidity;BME280_pressure;Samples;Min_cycle;Max_cycle;Signal;HPM_P1;HPM_P2
2022/10/30 00:01:57;;;;;;;13.73;3.80;;;18.10;1.00;;;;;;5054204;28;20568;-59
2022/10/30 00:04:25;;;;;;;9.97;3.83;;;18.10;1.00;;;;;;5053714;28;20202;-55
2022/10/30 00:06:52;;;;;;;13.23;3.30;;;18.10;1.00;;;;;;5053419;28;20209;-57
2022/10/30 00:09:18;;;;;;;13.83;3.77;;;18.00;1.00;;;;;;5053441;28;20271;-57
2022/10/30 00:11:45;;;;;;;11.10;3.87;;;18.00;1.00;;;;;;5053821;28;20255;-56
2022/10/30 00:14:12;;;;;;;8.13;3.40;;;18.00;1.00;;;;;;5054123;28;20205;-58
2022/10/30 00:16:39;;;;;;;8.70;3.27;;;18.00;1.00;;;;;;5052898;28;20206;-56
2022/10/30 00:19:06;;;;;;;10.63;4.20;;;18.00;9.80;;;;;;5053637;28;20282;-55
2022/10/30 00:21:34;;;;;;;11.43;3.20;;;18.00;9.40;;;;;;5053280;28;20234;-59
2022/10/30 00:24:01;;;;;;;17.23;3.63;;;18.00;27.00;;;;;;5053714;28;20267;-58
2022/10/30 00:26:28;;;;;;;14.10;3.87;;;18.00;52.30;;;;;;5053102;28;20300;-58
2022/10/30 00:28:56;;;;;;;13.57;4.00;;;17.90;62.90;;;;;;5053122;28;20636;-56
2022/10/30 00:31:23;;;;;;;9.50;3.50;;;17.90;92.50;;;;;;5053270;28;20226;-56
2022/10/30 00:33:50;;;;;;;12.47;3.60;;;17.90;88.80;;;;;;5052843;28;20279;-55
2022/10/30 00:36:17;;;;;;;7.87;3.37;;;17.90;99.90;;;;;;5052698;28;20560;-59
2022/10/30 00:38:45;;;;;;;7.23;3.20;;;17.90;99.90;;;;;;5052612;28;20252;-56
2022/10/30 00:41:15;;;;;;;10.07;3.90;;;17.90;99.90;;;;;;5053108;28;20287;-55
2022/10/30 00:43:42;;;;;;;12.20;3.70;;;17.90;99.90;;;;;;5052890;28;20206;-58
2022/10/30 00:46:18;;;;;;;11.97;3.63;;;17.80;99.90;;;;;;5052347;28;20206;-52
2022/10/30 00:48:52;;;;;;;8.93;3.67;;;17.80;99.90;;;;;;5052424;28;20206;-53
2022/10/30 00:51:20;;;;;;;14.13;4.33;;;17.70;99.90;;;;;;5052704;28;20228;-54
2022/10/30 00:53:48;;;;;;;15.27;4.17;;;17.60;99.90;;;;;;5052814;28;20213;-56
2022/10/30 00:56:18;;;;;;;9.90;3.60;;;17.60;99.90;;;;;;5052242;28;20209;-56
2022/10/30 00:58:49;;;;;;;7.63;3.63;;;17.60;99.90;;;;;;5052390;28;20225;-55
2022/10/30 01:01:19;;;;;;;13.83;4.13;;;17.60;99.90;;;;;;5052207;28;20225;-53
2022/10/30 01:03:47;;;;;;;10.30;3.67;;;17.60;99.90;;;;;;5052093;28;20206;-56
2022/10/30 01:06:16;;;;;;;9.57;3.70;;;17.60;99.90;;;;;;5052474;28;20205;-58
2022/10/30 01:08:44;;;;;;;11.77;4.40;;;17.50;99.90;;;;;;5052281;28;20252;-54
2022/10/30 01:11:12;;;;;;;7.53;3.30;;;17.50;99.90;;;;;;5052285;28;20229;-55
2022/10/30 01:13:42;;;;;;;12.93;4.17;;;17.40;99.90;;;;;;5052344;28;20217;-56
2022/10/30 01:16:33;;;;;;;11.43;3.80;;;17.40;99.90;;;;;;5052135;28;20228;-59
2022/10/30 01:19:10;;;;;;;8.83;3.77;;;17.40;1.00;;;;;;5049459;28;20226;-55
2022/10/30 01:21:50;;;;;;;12.37;3.87;;;17.30;1.00;;;;;;5052344;28;20226;-54
2022/10/30 01:24:31;;;;;;;8.00;3.60;;;17.30;1.00;;;;;;5051956;28;20209;-59
2022/10/30 01:27:09;;;;;;;8.50;3.67;;;17.20;1.00;;;;;;5051871;28;20213;-58
2022/10/30 01:29:47;;;;;;;10.07;3.70;;;17.20;1.00;;;;;;5052034;28;20270;-59
2022/10/30 01:32:31;;;;;;;7.97;3.80;;;17.20;1.00;;;;;;5052107;28;20229;-57
2022/10/30 01:35:05;;;;;;;11.43;4.27;;;17.10;1.00;;;;;;5051908;28;20263;-57
2022/10/30 01:37:39;;;;;;;8.47;3.33;;;17.10;1.00;;;;;;5051698;28;20623;-56
2022/10/30 01:40:10;;;;;;;10.57;3.63;;;17.00;1.00;;;;;;5051470;28;20302;-59
2022/10/30 01:42:46;;;;;;;13.80;4.00;;;16.90;42.00;;;;;;5052069;28;20255;-57
2022/10/30 01:45:21;;;;;;;9.10;3.40;;;16.90;19.50;;;;;;5051538;28;20672;-56
2022/10/30 01:48:03;;;;;;;11.97;4.57;;;16.90;84.20;;;;;;5051794;28;20200;-56
2022/10/30 01:50:36;;;;;;;5.57;3.30;;;16.90;99.90;;;;;;5051774;28;20228;-59
2022/10/30 01:53:12;;;;;;;9.17;4.10;;;16.80;99.90;;;;;;5051908;28;20625;-56
2022/10/30 01:55:49;;;;;;;9.67;3.73;;;16.90;99.90;;;;;;5051477;28;20197;-55
2022/10/30 01:58:22;;;;;;;10.70;4.00;;;16.80;99.90;;;;;;5051507;28;20708;-54
2022/10/30 02:00:53;;;;;;;9.93;3.77;;;16.80;99.90;;;;;;5051755;28;20256;-54
2022/10/30 02:03:21;;;;;;;9.33;4.10;;;16.80;99.90;;;;;;5051665;28;20232;-59
2022/10/30 02:05:49;;;;;;;7.30;3.40;;;16.80;99.90;;;;;;5051342;28;20209;-58
2022/10/30 02:08:16;;;;;;;15.13;3.70;;;16.80;99.90;;;;;;5051230;28;20213;-56
2022/10/30 02:10:44;;;;;;;7.33;3.57;;;16.80;99.90;;;;;;5051523;28;20225;-56
2022/10/30 02:13:11;;;;;;;9.97;4.40;;;16.80;99.90;;;;;;5051638;28;20205;-55
2022/10/30 02:15:40;;;;;;;12.73;4.27;;;16.80;99.90;;;;;;5051525;28;20672;-54
2022/10/30 02:18:08;;;;;;;7.63;3.27;;;16.80;99.90;;;;;;5051488;28;20225;-56
2022/10/30 02:20:36;;;;;;;12.83;4.67;;;16.80;99.90;;;;;;5051440;28;20240;-58
2022/10/30 02:23:03;;;;;;;7.97;3.70;;;16.80;99.90;;;;;;5051283;28;20222;-58
2022/10/30 02:25:29;;;;;;;13.57;3.77;;;16.80;99.90;;;;;;5051480;28;20266;-57
2022/10/30 02:27:56;;;;;;;8.03;3.83;;;16.80;99.90;;;;;;5051390;28;20210;-57
2022/10/30 02:30:23;;;;;;;9.63;3.70;;;16.70;99.90;;;;;;5051291;28;20339;-56
2022/10/30 02:32:49;;;;;;;8.50;3.43;;;16.60;99.90;;;;;;5051363;28;20742;-59
2022/10/30 02:35:16;;;;;;;10.07;4.10;;;16.60;99.90;;;;;;5051102;28;20213;-58
2022/10/30 02:37:47;;;;;;;9.87;4.10;;;16.60;99.90;;;;;;5051186;28;20206;-54
2022/10/30 02:40:13;;;;;;;10.30;4.00;;;16.60;99.90;;;;;;5054827;28;20213;-57
2022/10/30 02:42:40;;;;;;;9.80;3.97;;;16.50;1.00;;;;;;5054827;28;20206;-57
2022/10/30 02:45:08;;;;;;;10.43;3.93;;;16.50;1.00;;;;;;5055086;28;20201;-58
2022/10/30 02:47:35;;;;;;;12.07;4.23;;;16.40;1.00;;;;;;5054815;28;20212;-57
2022/10/30 02:50:01;;;;;;;9.20;3.90;;;16.40;1.00;;;;;;5054874;28;20210;-54
2022/10/30 02:52:28;;;;;;;11.27;4.23;;;16.40;1.00;;;;;;5055174;28;20221;-55
2022/10/30 02:54:56;;;;;;;14.70;3.90;;;16.30;99.90;;;;;;5055076;28;20251;-56
2022/10/30 02:57:23;;;;;;;10.20;4.10;;;16.30;1.00;;;;;;5054749;28;20210;-54
2022/10/30 02:59:49;;;;;;;11.13;4.30;;;16.20;1.00;;;;;;5054741;28;20271;-56
2022/10/30 03:02:16;;;;;;;13.10;4.10;;;16.20;99.90;;;;;;5054771;28;20632;-57
2022/10/30 03:04:43;;;;;;;9.63;3.63;;;16.20;99.90;;;;;;5055227;28;20251;-54
2022/10/30 03:07:09;;;;;;;9.77;4.00;;;16.10;1.00;;;;;;5054666;28;20232;-54
2022/10/30 03:09:36;;;;;;;13.60;3.77;;;16.10;25.30;;;;;;5054973;28;20202;-59
2022/10/30 03:12:05;;;;;;;10.37;4.20;;;16.00;99.90;;;;;;5054518;28;20225;-58
2022/10/30 03:14:31;;;;;;;8.77;3.87;;;16.00;1.00;;;;;;5054468;28;20625;-59
2022/10/30 03:16:58;;;;;;;11.60;4.13;;;16.00;1.00;;;;;;5054231;28;20260;-55
2022/10/30 03:19:24;;;;;;;10.43;4.10;;;16.00;1.00;;;;;;5054603;28;20222;-55
2022/10/30 03:21:52;;;;;;;8.97;3.87;;;16.00;1.00;;;;;;5054543;28;20230;-59
2022/10/30 03:24:19;;;;;;;10.93;4.30;;;16.00;69.80;;;;;;5054420;28;20278;-58
2022/10/30 03:26:46;;;;;;;12.20;4.53;;;16.00;95.90;;;;;;5054113;28;20205;-59
2022/10/30 03:29:14;;;;;;;15.70;4.73;;;16.00;99.90;;;;;;5054217;28;20210;-56
2022/10/30 03:31:41;;;;;;;8.43;3.97;;;16.00;1.00;;;;;;5053971;28;20230;-57
2022/10/30 03:34:08;;;;;;;10.00;4.07;;;16.00;1.00;;;;;;5054307;28;20206;-56
2022/10/30 03:36:34;;;;;;;11.60;4.47;;;15.90;64.80;;;;;;5053943;28;20214;-58
2022/10/30 03:39:01;;;;;;;8.00;4.20;;;15.90;99.90;;;;;;5054047;28;20221;-56
2022/10/30 03:41:28;;;;;;;11.43;4.10;;;15.80;1.00;;;;;;5053993;28;20271;-57
2022/10/30 03:43:54;;;;;;;11.30;3.83;;;15.80;99.90;;;;;;5054022;28;20232;-59
2022/10/30 03:46:22;;;;;;;8.13;3.90;;;15.80;10.30;;;;;;5053898;28;20205;-59
2022/10/30 03:48:49;;;;;;;8.13;3.77;;;15.80;99.90;;;;;;5054215;28;20198;-57
2022/10/30 03:51:17;;;;;;;10.30;4.87;;;15.70;1.00;;;;;;5052838;28;20271;-59
2022/10/30 03:53:43;;;;;;;14.33;4.13;;;15.70;83.30;;;;;;5053988;28;20254;-56
2022/10/30 03:56:10;;;;;;;7.93;3.90;;;15.60;1.00;;;;;;5053851;28;20680;-57
2022/10/30 03:58:37;;;;;;;11.60;4.03;;;15.60;1.00;;;;;;5054339;28;20217;-54
2022/10/30 04:01:05;;;;;;;12.73;4.37;;;15.60;1.00;;;;;;5054293;28;20307;-57
2022/10/30 04:03:33;;;;;;;10.23;4.30;;;15.60;57.80;;;;;;5054098;28;20271;-53
2022/10/30 04:06:00;;;;;;;13.40;4.43;;;15.50;99.90;;;;;;5053329;28;20209;-56
2022/10/30 04:08:27;;;;;;;7.37;3.87;;;15.50;99.90;;;;;;5053630;28;20631;-56
2022/10/30 04:10:53;;;;;;;10.30;4.30;;;15.40;1.00;;;;;;5053471;28;20237;-54
2022/10/30 04:13:20;;;;;;;13.07;5.00;;;15.40;1.00;;;;;;5053737;28;20267;-55
2022/10/30 04:15:48;;;;;;;10.37;4.77;;;15.40;57.10;;;;;;5053495;28;20205;-57
2022/10/30 04:18:15;;;;;;;8.80;4.50;;;15.40;53.80;;;;;;5053294;28;20208;-59
2022/10/30 04:20:44;;;;;;;7.30;3.90;;;15.40;99.90;;;;;;5053382;28;20226;-59
2022/10/30 04:23:13;;;;;;;12.00;4.93;;;15.40;99.90;;;;;;5053277;28;20209;-56
2022/10/30 04:25:40;;;;;;;11.67;5.27;;;15.40;99.90;;;;;;5053194;28;20247;-54
2022/10/30 04:28:07;;;;;;;14.70;4.53;;;15.30;99.90;;;;;;5052963;28;20201;-59
2022/10/30 04:30:35;;;;;;;11.13;4.03;;;15.40;99.90;;;;;;5052989;28;20739;-60
2022/10/30 04:33:04;;;;;;;9.50;4.00;;;15.40;99.90;;;;;;5053244;28;20618;-59
2022/10/30 04:35:32;;;;;;;8.13;4.40;;;15.30;99.90;;;;;;5053083;28;20553;-59
2022/10/30 04:38:02;;;;;;;8.27;4.30;;;15.30;99.90;;;;;;5052586;28;20255;-56
2022/10/30 04:40:30;;;;;;;10.97;4.53;;;15.30;99.90;;;;;;5052664;28;20229;-58
2022/10/30 04:42:57;;;;;;;10.60;4.77;;;15.20;1.00;;;;;;5053183;28;20626;-59
2022/10/30 04:45:24;;;;;;;18.23;4.90;;;15.10;1.00;;;;;;5053110;28;20205;-56
2022/10/30 04:47:51;;;;;;;12.87;4.60;;;15.10;1.00;;;;;;5052228;28;20205;-54
2022/10/30 04:50:19;;;;;;;11.47;4.57;;;15.10;89.20;;;;;;5052787;28;20209;-55
2022/10/30 04:52:45;;;;;;;14.47;4.93;;;15.00;99.90;;;;;;5052668;28;20259;-57
2022/10/30 04:55:13;;;;;;;9.97;4.53;;;15.00;99.90;;;;;;5052729;28;20672;-51
2022/10/30 04:57:40;;;;;;;12.50;4.63;;;15.00;99.90;;;;;;5052232;28;20672;-55
2022/10/30 05:00:08;;;;;;;13.87;4.60;;;14.90;99.90;;;;;;5052317;28;20703;-54
2022/10/30 05:02:35;;;;;;;14.90;5.37;;;14.90;99.90;;;;;;5052326;28;20263;-56
2022/10/30 05:05:02;;;;;;;9.07;4.67;;;14.90;99.90;;;;;;5052489;28;20739;-54
2022/10/30 05:07:29;;;;;;;14.27;5.03;;;14.90;99.90;;;;;;5052266;28;20213;-52
2022/10/30 05:09:56;;;;;;;15.17;5.00;;;14.80;99.90;;;;;;5052608;28;20202;-56
2022/10/30 05:12:24;;;;;;;11.20;4.30;;;14.80;99.90;;;;;;5052480;28;20233;-51
2022/10/30 05:14:51;;;;;;;8.87;4.33;;;14.70;99.90;;;;;;5052496;28;20248;-55
2022/10/30 05:17:17;;;;;;;9.30;4.30;;;14.70;99.90;;;;;;5052150;28;20209;-55
2022/10/30 05:19:44;;;;;;;14.23;4.73;;;14.70;1.00;;;;;;5052166;28;20233;-57
2022/10/30 05:22:11;;;;;;;10.50;4.40;;;14.70;1.00;;;;;;5052091;28;20233;-56
2022/10/30 05:24:38;;;;;;;8.63;4.47;;;14.70;1.00;;;;;;5052252;28;20684;-57
2022/10/30 05:27:05;;;;;;;14.07;4.70;;;14.70;1.00;;;;;;5052009;28;20632;-51
2022/10/30 05:29:33;;;;;;;7.63;4.50;;;14.80;1.00;;;;;;5051722;28;20213;-50
2022/10/30 05:32:00;;;;;;;7.77;4.50;;;14.80;1.00;;;;;;5052004;28;20225;-53
2022/10/30 05:34:26;;;;;;;12.63;4.70;;;14.80;1.00;;;;;;5051947;28;20206;-58
2022/10/30 05:36:53;;;;;;;12.47;4.63;;;14.90;1.00;;;;;;5051881;28;20205;-56
2022/10/30 05:39:19;;;;;;;12.77;4.97;;;14.90;99.90;;;;;;5051874;28;20708;-54
2022/10/30 05:41:46;;;;;;;16.90;4.53;;;14.90;99.90;;;;;;5051886;28;20226;-55
2022/10/30 05:44:13;;;;;;;13.43;4.17;;;14.90;99.90;;;;;;5051960;28;20251;-56
2022/10/30 05:46:41;;;;;;;10.00;4.10;;;14.90;99.90;;;;;;5051517;28;20214;-54
2022/10/30 05:49:08;;;;;;;13.53;4.63;;;14.90;99.90;;;;;;5051820;28;20555;-56
2022/10/30 05:51:34;;;;;;;10.27;4.90;;;14.90;99.90;;;;;;5051961;28;20371;-55
2022/10/30 05:54:01;;;;;;;13.10;4.40;;;14.90;99.90;;;;;;5051734;28;20600;-56
2022/10/30 05:56:28;;;;;;;7.93;4.70;;;14.90;99.90;;;;;;5051484;28;20562;-56
2022/10/30 05:58:54;;;;;;;9.83;4.23;;;14.90;99.90;;;;;;5051534;28;20630;-55
2022/10/30 06:01:21;;;;;;;9.97;5.30;;;14.80;99.90;;;;;;5051689;28;20283;-58
2022/10/30 06:03:49;;;;;;;13.77;4.90;;;14.80;99.90;;;;;;5051390;28;20209;-55
2022/10/30 06:06:16;;;;;;;12.93;4.73;;;14.80;1.00;;;;;;5051780;28;20206;-56
2022/10/30 06:08:43;;;;;;;15.93;5.97;;;14.80;1.00;;;;;;5051715;28;20213;-53
2022/10/30 06:11:09;;;;;;;9.87;4.70;;;14.70;1.00;;;;;;5051603;28;20229;-54
2022/10/30 06:13:36;;;;;;;13.33;4.67;;;14.70;1.00;;;;;;5052626;28;20279;-55
2022/10/30 06:16:03;;;;;;;13.07;5.20;;;14.60;1.00;;;;;;5055532;28;20259;-55
2022/10/30 06:18:29;;;;;;;7.13;4.50;;;14.60;1.00;;;;;;5055602;28;20236;-58
2022/10/30 06:20:57;;;;;;;11.37;4.80;;;14.60;1.00;;;;;;5055616;28;20287;-57
2022/10/30 06:23:24;;;;;;;12.67;5.17;;;14.50;1.00;;;;;;5055580;28;20209;-56
2022/10/30 06:25:50;;;;;;;10.90;4.47;;;14.50;1.00;;;;;;5055591;28;20205;-58
2022/10/30 06:28:17;;;;;;;12.93;4.70;;;14.50;1.00;;;;;;5055207;28;20209;-55
2022/10/30 06:30:44;;;;;;;8.60;5.13;;;14.40;1.00;;;;;;5055249;28;20221;-58
2022/10/30 06:33:11;;;;;;;13.60;4.80;;;14.40;1.00;;;;;;5055322;28;20209;-58
2022/10/30 06:35:37;;;;;;;12.10;4.33;;;14.40;1.00;;;;;;5055362;28;20205;-54
2022/10/30 06:38:07;;;;;;;10.97;5.37;;;14.30;1.00;;;;;;5055073;28;20206;-57
2022/10/30 06:40:34;;;;;;;12.80;5.30;;;14.30;11.60;;;;;;5055114;28;20239;-59
2022/10/30 06:43:00;;;;;;;10.33;4.37;;;14.30;22.00;;;;;;5054822;28;20202;-55
2022/10/30 06:45:27;;;;;;;13.20;4.97;;;14.30;32.70;;;;;;5055401;28;20213;-55
2022/10/30 06:47:54;;;;;;;9.83;4.57;;;14.30;43.80;;;;;;5055057;28;20259;-55
2022/10/30 06:50:23;;;;;;;11.63;5.13;;;14.20;54.90;;;;;;5055093;28;20279;-58
2022/10/30 06:52:49;;;;;;;9.73;4.50;;;14.20;73.00;;;;;;5055126;28;20209;-54
2022/10/30 06:55:17;;;;;;;8.83;5.20;;;14.20;83.90;;;;;;5055011;28;20856;-55
2022/10/30 06:57:44;;;;;;;15.50;4.80;;;14.20;91.40;;;;;;5054182;28;20236;-58
2022/10/30 07:00:12;;;;;;;13.67;5.07;;;14.20;94.50;;;;;;5054778;28;20626;-56
2022/10/30 07:02:39;;;;;;;13.17;4.93;;;14.20;96.90;;;;;;5054978;28;20644;-58
2022/10/30 07:05:06;;;;;;;14.10;5.20;;;14.30;97.40;;;;;;5054756;28;20210;-56
2022/10/30 07:07:33;;;;;;;13.57;5.57;;;14.30;98.80;;;;;;5054994;28;20263;-58
2022/10/30 07:09:59;;;;;;;11.87;5.03;;;14.30;99.90;;;;;;5054771;28;20201;-56
2022/10/30 07:12:27;;;;;;;14.77;5.50;;;14.20;99.90;;;;;;5054382;28;20234;-57
2022/10/30 07:14:54;;;;;;;13.47;5.13;;;14.20;99.90;;;;;;5054812;28;20210;-56
2022/10/30 07:17:21;;;;;;;9.27;4.70;;;14.30;99.90;;;;;;5054487;28;20263;-57
2022/10/30 07:19:47;;;;;;;9.20;5.27;;;14.30;99.90;;;;;;5054297;28;20221;-56
2022/10/30 07:22:14;;;;;;;8.73;4.77;;;14.40;99.90;;;;;;5054358;28;20226;-55
2022/10/30 07:24:41;;;;;;;10.27;4.73;;;14.40;99.90;;;;;;5054247;28;20210;-58
2022/10/30 07:27:08;;;;;;;11.27;5.03;;;14.40;99.90;;;;;;5054031;28;20205;-58
2022/10/30 07:29:35;;;;;;;13.07;5.47;;;14.50;99.90;;;;;;5054243;28;20635;-56
2022/10/30 07:32:02;;;;;;;8.33;4.60;;;14.50;99.90;;;;;;5054197;28;20230;-54
2022/10/30 07:34:29;;;;;;;15.60;5.13;;;14.60;99.90;;;;;;5054444;28;20580;-56
2022/10/30 07:36:55;;;;;;;9.07;4.87;;;14.70;99.90;;;;;;5054136;28;20587;-55
2022/10/30 07:39:22;;;;;;;11.93;5.13;;;14.70;99.90;;;;;;5054224;28;20206;-56
2022/10/30 07:41:49;;;;;;;10.73;4.60;;;14.80;99.90;;;;;;5054562;28;20229;-55
2022/10/30 07:44:16;;;;;;;16.53;5.67;;;14.90;99.90;;;;;;5054187;28;20578;-57
2022/10/30 07:46:44;;;;;;;12.00;4.80;;;15.00;99.90;;;;;;5054147;28;20739;-55
2022/10/30 07:49:11;;;;;;;12.70;5.13;;;15.00;99.90;;;;;;5054093;28;20679;-57
2022/10/30 07:51:37;;;;;;;11.97;4.70;;;15.20;99.90;;;;;;5054263;28;20221;-52
2022/10/30 07:54:04;;;;;;;13.60;5.00;;;15.20;99.90;;;;;;5053836;28;20205;-56
2022/10/30 07:56:31;;;;;;;12.97;4.60;;;15.30;99.30;;;;;;5053918;28;20626;-53
2022/10/30 07:58:57;;;;;;;8.60;4.33;;;15.40;96.70;;;;;;5053757;28;20806;-55
2022/10/30 08:01:24;;;;;;;10.70;4.63;;;15.40;94.20;;;;;;5053711;28;20762;-58
2022/10/30 08:03:52;;;;;;;9.17;5.27;;;15.50;96.40;;;;;;5054183;28;20206;-56
2022/10/30 08:06:19;;;;;;;11.17;4.80;;;15.50;95.00;;;;;;5053984;28;20202;-58
2022/10/30 08:08:45;;;;;;;10.43;4.47;;;15.60;85.20;;;;;;5053944;28;20232;-56
2022/10/30 08:11:12;;;;;;;11.93;4.90;;;15.70;81.80;;;;;;5053985;28;20279;-58
2022/10/30 08:13:38;;;;;;;10.23;4.50;;;15.80;71.10;;;;;;5054027;28;20210;-55
2022/10/30 08:16:06;;;;;;;13.77;4.60;;;15.80;55.30;;;;;;5053859;28;20251;-56
2022/10/30 08:18:32;;;;;;;8.10;4.00;;;16.00;37.50;;;;;;5053549;28;20668;-58
2022/10/30 08:21:00;;;;;;;9.87;4.30;;;16.10;39.40;;;;;;5053041;28;20233;-56
2022/10/30 08:23:27;;;;;;;8.80;4.80;;;16.20;23.20;;;;;;5053582;28;20276;-55
2022/10/30 08:25:59;;;;;;;12.90;4.73;;;16.30;20.00;;;;;;5053126;28;20271;-53
2022/10/30 08:28:25;;;;;;;12.27;4.60;;;16.40;4.20;;;;;;5053117;28;20268;-54
2022/10/30 08:30:52;;;;;;;17.40;4.97;;;16.50;1.00;;;;;;5053304;28;20256;-55
2022/10/30 08:33:19;;;;;;;15.70;4.53;;;16.60;1.00;;;;;;5053210;28;20232;-59
2022/10/30 08:35:49;;;;;;;8.30;4.03;;;16.70;1.00;;;;;;5052381;28;20212;-59
2022/10/30 08:38:18;;;;;;;12.10;4.57;;;16.70;1.00;;;;;;5053030;28;20624;-55
2022/10/30 08:40:44;;;;;;;8.43;4.57;;;16.80;1.00;;;;;;5052893;28;20229;-56
2022/10/30 08:43:11;;;;;;;8.10;4.00;;;16.90;1.00;;;;;;5053127;28;20610;-56
2022/10/30 08:45:38;;;;;;;12.47;4.53;;;17.00;1.00;;;;;;5052968;28;20329;-56
2022/10/30 08:48:06;;;;;;;9.23;4.53;;;17.10;1.00;;;;;;5052690;28;20703;-58
2022/10/30 08:50:34;;;;;;;11.83;4.33;;;17.20;1.00;;;;;;5052852;28;20671;-59
2022/10/30 08:53:02;;;;;;;14.50;4.40;;;17.20;1.00;;;;;;5053096;28;20263;-61
2022/10/30 08:55:30;;;;;;;13.77;4.73;;;17.40;1.00;;;;;;5052656;28;20868;-60
2022/10/30 08:57:57;;;;;;;11.73;4.53;;;17.40;1.00;;;;;;5052539;28;20202;-62
2022/10/30 09:00:24;;;;;;;13.40;4.80;;;17.50;1.00;;;;;;5051676;28;20316;-61
2022/10/30 09:02:51;;;;;;;11.27;4.20;;;17.50;1.00;;;;;;5052585;28;20209;-60
2022/10/30 09:05:17;;;;;;;10.53;4.07;;;17.60;99.90;;;;;;5052624;28;20209;-60
2022/10/30 09:07:45;;;;;;;12.33;4.90;;;17.70;99.90;;;;;;5052288;28;20255;-59
2022/10/30 09:10:12;;;;;;;11.00;4.17;;;17.80;34.00;;;;;;5052324;28;20197;-61
2022/10/30 09:12:40;;;;;;;13.03;4.23;;;17.80;99.90;;;;;;5052526;28;20263;-61
2022/10/30 09:15:08;;;;;;;12.13;4.37;;;17.90;99.90;;;;;;5052213;28;20206;-60
2022/10/30 09:17:34;;;;;;;15.03;4.70;;;18.10;99.90;;;;;;5052298;28;20217;-60
2022/10/30 09:20:01;;;;;;;11.27;4.47;;;18.20;99.90;;;;;;5052093;28;20209;-58
2022/10/30 09:22:27;;;;;;;10.20;4.70;;;18.20;99.90;;;;;;5052183;28;20255;-62
2022/10/30 09:24:54;;;;;;;7.47;4.03;;;18.40;99.90;;;;;;5052097;28;20637;-60
2022/10/30 09:27:21;;;;;;;11.80;4.23;;;18.50;99.90;;;;;;5051928;28;20202;-61
2022/10/30 09:29:49;;;;;;;9.33;4.43;;;18.60;1.00;;;;;;5051712;28;20213;-60
2022/10/30 09:32:16;;;;;;;14.90;5.00;;;18.70;99.90;;;;;;5051956;28;20607;-61
2022/10/30 09:34:42;;;;;;;12.00;4.83;;;18.80;86.90;;;;;;5052187;28;20213;-61
2022/10/30 09:37:09;;;;;;;13.10;4.00;;;18.90;95.10;;;;;;5041305;28;20209;-60
2022/10/30 09:39:36;;;;;;;11.43;4.10;;;19.00;1.00;;;;;;5051282;28;20904;-56
2022/10/30 09:42:27;;;;;;;7.73;3.70;;;19.00;99.90;;;;;;5050798;28;20240;-61
2022/10/30 09:45:05;;;;;;;11.83;4.10;;;19.20;35.60;;;;;;5051096;28;20263;-58
2022/10/30 09:47:38;;;;;;;8.77;3.80;;;19.30;1.00;;;;;;5050642;28;20742;-61
2022/10/30 09:50:19;;;;;;;9.73;3.73;;;19.40;32.80;;;;;;5051306;28;20205;-61
2022/10/30 09:52:57;;;;;;;14.23;4.43;;;19.50;99.90;;;;;;5051181;28;20209;-58
2022/10/30 09:55:30;;;;;;;11.13;4.23;;;19.50;1.00;;;;;;5051742;28;20617;-60
2022/10/30 09:58:04;;;;;;;7.23;3.97;;;19.60;1.00;;;;;;5050701;28;20216;-60
2022/10/30 10:00:36;;;;;;;11.87;3.63;;;19.60;99.90;;;;;;5051325;28;20248;-60
2022/10/30 10:03:25;;;;;;;9.77;3.73;;;19.60;99.90;;;;;;5051220;28;20262;-61
2022/10/30 10:05:54;;;;;;;8.80;3.83;;;19.70;75.70;;;;;;5051313;28;20202;-58
2022/10/30 10:08:33;;;;;;;9.30;3.50;;;19.80;1.00;;;;;;5051354;28;20218;-60
2022/10/30 10:11:02;;;;;;;11.77;3.53;;;19.90;1.00;;;;;;5051326;28;20226;-61
2022/10/30 10:13:36;;;;;;;14.57;4.80;;;19.90;1.00;;;;;;5050996;28;20206;-60
2022/10/30 10:16:11;;;;;;;13.97;4.17;;;20.10;1.00;;;;;;5050795;28;20216;-56
2022/10/30 10:18:43;;;;;;;8.87;3.57;;;20.20;1.00;;;;;;5051169;28;20231;-58
2022/10/30 10:21:18;;;;;;;7.00;4.07;;;20.20;1.00;;;;;;5048817;28;20225;-62
2022/10/30 10:23:48;;;;;;;8.73;3.80;;;20.20;99.90;;;;;;5051117;28;20209;-57
2022/10/30 10:26:30;;;;;;;15.63;4.37;;;20.40;99.90;;;;;;5050916;28;20245;-58
2022/10/30 10:29:23;;;;;;;13.93;3.73;;;20.50;99.90;;;;;;5051064;28;20699;-59
2022/10/30 10:32:04;;;;;;;8.27;3.80;;;20.50;99.90;;;;;;5038037;28;20225;-58
2022/10/30 10:34:47;;;;;;;6.13;3.57;;;20.60;99.90;;;;;;5051072;28;20304;-57
2022/10/30 10:37:23;;;;;;;7.63;3.30;;;20.60;99.90;;;;;;5050636;28;20617;-62
2022/10/30 10:40:15;;;;;;;6.23;3.60;;;20.60;99.90;;;;;;5051282;28;20213;-60
2022/10/30 10:42:52;;;;;;;9.70;4.13;;;20.70;73.90;;;;;;5051082;28;20229;-60
2022/10/30 10:45:29;;;;;;;15.73;3.60;;;20.80;74.40;;;;;;5051080;28;20209;-62
2022/10/30 10:48:36;;;;;;;10.43;3.60;;;20.90;1.00;;;;;;5050894;28;20209;-62
2022/10/30 10:51:07;;;;;;;10.50;3.20;;;20.90;1.00;;;;;;5050800;28;20229;-57
2022/10/30 10:53:42;;;;;;;14.90;3.80;;;20.90;1.00;;;;;;5050963;28;20210;-59
2022/10/30 10:56:10;;;;;;;12.73;3.80;;;20.90;1.00;;;;;;5050640;28;20201;-59
2022/10/30 10:58:43;;;;;;;8.90;3.60;;;21.00;1.00;;;;;;5050812;28;20202;-60
2022/10/30 11:01:14;;;;;;;12.93;3.70;;;21.00;1.00;;;;;;5054144;28;20703;-60
2022/10/30 11:03:50;;;;;;;13.43;4.07;;;21.00;1.00;;;;;;5054575;28;20255;-57
2022/10/30 11:06:20;;;;;;;10.53;3.80;;;21.10;1.00;;;;;;5054298;28;20202;-60
2022/10/30 11:08:49;;;;;;;8.83;3.70;;;21.20;1.00;;;;;;5054580;28;20296;-60
2022/10/30 11:11:15;;;;;;;11.23;3.97;;;21.30;5.20;;;;;;5054404;28;20233;-57
2022/10/30 11:13:44;;;;;;;10.40;3.80;;;21.10;1.00;;;;;;5054480;28;20209;-59
2022/10/30 11:16:24;;;;;;;9.23;3.70;;;21.20;1.00;;;;;;5053821;28;20237;-58
2022/10/30 11:18:55;;;;;;;7.80;3.20;;;21.30;1.00;;;;;;5054641;28;20259;-60
2022/10/30 11:21:23;;;;;;;14.33;3.40;;;21.20;1.00;;;;;;5053862;28;20280;-56
2022/10/30 11:23:50;;;;;;;9.70;3.80;;;21.20;1.00;;;;;;5054121;28;20209;-58
2022/10/30 11:26:32;;;;;;;10.27;3.63;;;21.20;1.00;;;;;;5053711;28;20206;-58
2022/10/30 11:29:03;;;;;;;7.90;3.80;;;21.20;1.00;;;;;;5054110;28;20296;-61
2022/10/30 11:31:34;;;;;;;14.93;4.67;;;21.30;1.00;;;;;;5053976;28;20226;-59
2022/10/30 11:34:14;;;;;;;7.90;3.57;;;21.30;1.00;;;;;;5053912;28;20251;-58
2022/10/30 11:36:41;;;;;;;9.90;3.27;;;21.30;1.00;;;;;;5052938;28;20212;-60
2022/10/30 11:39:17;;;;;;;11.97;3.03;;;21.30;1.00;;;;;;5033072;28;20698;-59
2022/10/30 11:41:48;;;;;;;10.37;3.70;;;21.40;1.00;;;;;;5033684;28;20580;-59
2022/10/30 11:44:15;;;;;;;15.63;3.93;;;21.50;1.00;;;;;;5033807;28;20210;-59
2022/10/30 11:46:42;;;;;;;9.20;3.80;;;21.50;1.00;;;;;;5033080;28;20264;-59
2022/10/30 11:49:28;;;;;;;11.63;3.60;;;21.60;1.00;;;;;;5033898;28;20237;-61
2022/10/30 11:51:54;;;;;;;11.40;3.50;;;21.60;1.00;;;;;;5032349;28;20476;-59
2022/10/30 11:54:22;;;;;;;8.13;3.37;;;21.70;1.00;;;;;;5051713;28;20205;-55
2022/10/30 11:56:50;;;;;;;12.43;3.57;;;21.80;1.00;;;;;;5053022;28;20205;-57
2022/10/30 11:59:20;;;;;;;13.23;4.13;;;21.90;99.90;;;;;;5053811;28;20214;-57
2022/10/30 12:01:59;;;;;;;12.73;3.47;;;21.80;99.90;;;;;;5053071;28;20236;-62
2022/10/30 12:04:31;;;;;;;7.93;2.77;;;21.90;99.90;;;;;;5053186;28;20206;-59
2022/10/30 12:07:09;;;;;;;13.07;3.17;;;21.90;99.90;;;;;;5053569;28;20210;-59
2022/10/30 12:09:42;;;;;;;10.00;3.30;;;22.00;99.90;;;;;;5053623;28;20210;-59
2022/10/30 12:12:11;;;;;;;10.63;3.50;;;22.10;99.90;;;;;;5052445;28;20218;-58
2022/10/30 12:14:38;;;;;;;7.73;3.40;;;22.00;99.90;;;;;;5053644;28;20206;-58
2022/10/30 12:17:05;;;;;;;11.70;3.60;;;22.00;99.90;;;;;;5053643;28;20644;-56
2022/10/30 12:19:35;;;;;;;9.43;3.47;;;22.00;99.90;;;;;;5053486;28;20201;-59
2022/10/30 12:22:02;;;;;;;9.20;3.20;;;22.10;99.90;;;;;;5053234;28;20229;-56
2022/10/30 12:24:31;;;;;;;11.53;3.40;;;22.20;99.90;;;;;;5053414;28;20209;-59
2022/10/30 12:27:02;;;;;;;10.70;3.67;;;22.20;99.90;;;;;;5052920;28;20536;-59
2022/10/30 12:29:40;;;;;;;12.33;3.47;;;22.20;99.90;;;;;;5053406;28;20217;-56
2022/10/30 12:32:11;;;;;;;7.00;2.87;;;22.30;99.90;;;;;;5053525;28;20228;-57
2022/10/30 12:34:45;;;;;;;10.13;3.70;;;22.10;99.90;;;;;;5053333;28;20205;-59
2022/10/30 12:37:17;;;;;;;11.03;3.47;;;22.00;99.90;;;;;;5052940;28;20209;-58
2022/10/30 12:39:53;;;;;;;7.20;3.03;;;22.00;99.90;;;;;;5053198;28;20734;-56
2022/10/30 12:42:21;;;;;;;13.20;3.40;;;22.00;99.90;;;;;;5052562;28;20234;-57
2022/10/30 12:44:52;;;;;;;9.10;3.10;;;22.00;99.90;;;;;;5052813;28;20206;-58
2022/10/30 12:47:27;;;;;;;15.53;3.73;;;21.90;99.90;;;;;;5052746;28;20255;-58
2022/10/30 12:50:02;;;;;;;8.90;3.43;;;21.90;99.90;;;;;;5052556;28;20216;-59
2022/10/30 12:52:35;;;;;;;13.47;3.40;;;22.00;99.90;;;;;;5053170;28;20252;-58
2022/10/30 12:55:09;;;;;;;7.37;2.50;;;21.90;99.90;;;;;;5053110;28;20202;-58